Kelso, WA (98626)

9:45 AM PST on February 11, 2016 (GMT -0800)
Kelso | | Change Station
CLOSE
Current Station
Personal Weather Station
Location: Kelso, WA
Elevation: 23 ft
Nearby Weather Stations

Elev 23 ft 46.16 °N, 122.91 °W | Updated 2 seconds ago

Overcast
Overcast
49.6 °F
Feels Like 50 °F
N
0.0
Wind Variable Wind from East
Gusts 0.9 mph

Today
High -- | Low -- °F
--% Chance of Precip.
Yesterday
High -- | Low -- °F
Precip. -- in
Pressure 30.18 in
Visibility 9.0 miles
Clouds Overcast 7000 ft
Windchill 50 °F
Dew Point 48 °F
Humidity 96%
Rainfall 0.04 in
Snow Depth Not available.
7:21 AM 5:31 PM
Waxing Crescent, 13% visible
METAR KKLS 111735Z AUTO 00000KT 9SM OVC070 09/08 A3018 RMK AO1
Pressure 30.18 in
Visibility 9.0 miles
Clouds Overcast 7000 ft
Windchill 50 °F
Dew Point 48 °F
Humidity 96%
Rainfall 0.04 in
Snow Depth Not available.
7:21 AM 5:31 PM
Waxing Crescent, 13% visible
METAR KKLS 111735Z AUTO 00000KT 9SM OVC070 09/08 A3018 RMK AO1

10-Day Weather Forecast

Almanac

Astronomy

Feb. 11, 2016 Rise Set
Actual Time
Civil Twilight
Nautical Twilight
Astronomical Twilight
Moon
Length of Visible Light
Length of Day
Tomorrow will be .
, % of the Moon is Illuminated

Today's Extremes

State Highs State Lows

Community

WunderPhotos

Upload Photos

1,892,113 photos uploaded!

WunderBlog® & News

Nearby

Air Quality

  Air Quality AQ Index Pollutant
Not available.

Snow Depth

Station Depth Elevation

Earthquake Activity

City Distance Mag. Time & Date
Minimum magnitude displayed is 2.5.

Coastal Water Temperatures

Place Temperature

Stations

Nearby Weather Stations

Station Location Temp. Windchill Dew Point Humidity Wind Precip. Elev Updated Type
                   

Watches & Warnings

There are currently no watches in effect.